createdAt,value
2022-10-18T03:35:03.460Z,8.56
2022-10-18T03:40:06.014Z,8.56
2022-10-18T03:45:08.744Z,8.75
2022-10-18T03:50:10.398Z,8.75
2022-10-18T03:55:12.158Z,9.1
2022-10-18T04:00:15.918Z,9.1
2022-10-18T04:05:17.700Z,9.3
2022-10-18T04:10:19.371Z,9.3
2022-10-18T04:15:21.173Z,9.3
2022-10-18T04:20:23.462Z,9.3
2022-10-18T04:25:25.188Z,8.99
2022-10-18T04:30:26.866Z,8.69
2022-10-18T04:35:28.557Z,8.69
2022-10-18T04:40:30.211Z,8.78
2022-10-18T04:45:31.910Z,8.78
2022-10-18T04:50:33.594Z,8.73
2022-10-18T04:55:35.335Z,8.73
2022-10-18T05:00:39.208Z,8.82
2022-10-18T05:06:00.561Z,8.82
2022-10-18T05:10:47.732Z,8.84
2022-10-18T05:15:49.607Z,8.84
2022-10-18T05:20:51.206Z,8.84
2022-10-18T05:25:52.794Z,8.84
2022-10-18T05:30:54.528Z,8.84
2022-10-18T05:35:56.408Z,8.84
2022-10-18T05:40:58.511Z,8.84
2022-10-18T05:46:00.192Z,8.84
2022-10-18T05:51:01.988Z,8.84
2022-10-18T05:56:04.217Z,9.02
2022-10-18T06:01:06.688Z,9.02
2022-10-18T06:06:10.165Z,9.18
2022-10-18T06:11:13.147Z,9.18
2022-10-18T06:16:15.641Z,9.3
2022-10-18T06:21:18.434Z,9.3
2022-10-18T06:26:20.360Z,9.43
2022-10-18T06:31:22.159Z,9.43
2022-10-18T06:36:23.844Z,9.62
2022-10-18T06:41:25.707Z,9.62
2022-10-18T06:46:27.358Z,9.67
2022-10-18T06:51:29.423Z,9.67
2022-10-18T06:56:31.149Z,10.15
2022-10-18T07:01:32.859Z,10.15
2022-10-18T07:06:34.757Z,10.59
2022-10-18T07:11:36.359Z,10.72
2022-10-18T07:16:37.948Z,10.72
2022-10-18T07:21:39.685Z,10.89
2022-10-18T07:26:41.340Z,10.89
2022-10-18T07:31:42.993Z,11.17
2022-10-18T07:36:44.630Z,11.17
2022-10-18T07:41:46.656Z,11.39
2022-10-18T07:46:48.477Z,11.39
2022-10-18T07:51:50.183Z,11.64
2022-10-18T07:56:52.158Z,11.64
2022-10-18T08:01:53.837Z,12.01
2022-10-18T08:06:55.748Z,12.01
2022-10-18T08:11:57.398Z,12.34
2022-10-18T08:16:59.311Z,12.34
2022-10-18T08:22:01.040Z,12.51
2022-10-18T08:27:02.818Z,12.61
2022-10-18T08:32:04.901Z,12.61
2022-10-18T08:37:06.602Z,12.82
2022-10-18T08:42:14.619Z,12.82
2022-10-18T08:47:17.632Z,13.37
2022-10-18T08:52:25.103Z,13.37
2022-10-18T08:57:27.093Z,13.98
2022-10-18T09:02:35.069Z,13.98
2022-10-18T09:07:44.801Z,14.04
2022-10-18T09:28:14.393Z,14.23
2022-10-18T09:38:27.557Z,16.17
2022-10-18T09:48:41.556Z,17.29
2022-10-18T09:58:49.267Z,17.8
2022-10-18T10:03:51.048Z,18.34
2022-10-18T10:08:54.327Z,18.34
2022-10-18T10:13:56.456Z,17.91
2022-10-18T10:18:58.139Z,17.91
2022-10-18T10:23:59.871Z,18.22
2022-10-18T10:29:01.616Z,18.22
2022-10-18T10:34:04.800Z,18.8
2022-10-18T10:39:09.929Z,18.8
2022-10-18T10:44:14.431Z,19.17
2022-10-18T10:49:42.324Z,19.17
2022-10-18T10:54:25.544Z,19.07
2022-10-18T10:59:29.577Z,19.12
2022-10-18T11:04:31.456Z,19.12
2022-10-18T11:14:43.879Z,18.74
2022-10-18T11:24:54.446Z,18.8
2022-10-18T11:30:02.310Z,19.11
2022-10-18T11:50:36.850Z,19.83
2022-10-18T12:00:49.756Z,19.75
2022-10-18T12:05:53.904Z,20.14
2022-10-18T12:11:04.856Z,20.14
2022-10-18T12:16:04.361Z,20.38
2022-10-18T12:21:06.330Z,20.38
2022-10-18T12:26:09.674Z,20.78
2022-10-18T12:31:15.429Z,20.78
2022-10-18T12:41:28.566Z,20.42
2022-10-18T12:56:42.395Z,21.43
2022-10-18T13:27:35.345Z,22.29
2022-10-18T13:32:34.646Z,21.91
2022-10-18T13:37:36.908Z,21.91
2022-10-18T13:42:38.575Z,23.22
2022-10-18T13:47:40.324Z,23.22
2022-10-18T14:08:11.705Z,22.55
2022-10-18T14:13:18.626Z,22.55
2022-10-18T14:18:24.118Z,23.48
2022-10-18T14:23:30.673Z,23.48
2022-10-18T14:28:48.338Z,22.45
2022-10-18T14:33:40.812Z,22.45
2022-10-18T14:38:45.484Z,22.52
2022-10-18T14:43:47.333Z,22.52
2022-10-18T14:48:50.879Z,22.23
2022-10-18T14:53:52.948Z,22.23
2022-10-18T14:58:55.765Z,20.95
2022-10-18T15:03:58.408Z,20.95
2022-10-18T15:09:01.464Z,19.96
2022-10-18T15:14:04.463Z,17.91
2022-10-18T15:24:18.402Z,16.36
2022-10-18T15:29:20.790Z,16.36
2022-10-18T15:34:23.520Z,15.57
2022-10-18T15:39:26.328Z,15.57
2022-10-18T15:44:30.638Z,14.61
2022-10-18T15:54:42.671Z,13.74
2022-10-18T15:59:50.628Z,13.74
2022-10-18T16:04:52.659Z,13.08
2022-10-18T16:09:54.335Z,13.08
2022-10-18T16:14:55.920Z,12.51
2022-10-18T16:19:57.537Z,12.11
2022-10-18T16:24:59.174Z,12.11
2022-10-18T16:30:00.897Z,11.75
2022-10-18T16:35:02.663Z,11.75
2022-10-18T16:45:09.640Z,11.49
2022-10-18T16:50:14.184Z,11.14
2022-10-18T16:55:15.982Z,11.14
2022-10-18T17:00:19.736Z,11.08
2022-10-18T17:05:21.859Z,11.08
2022-10-18T17:10:24.262Z,11.13
2022-10-18T17:15:30.391Z,11.13
2022-10-18T17:20:33.116Z,10.39
2022-10-18T17:25:39.058Z,10.58
2022-10-18T17:30:41.866Z,10.58
2022-10-18T17:35:44.419Z,10.89
2022-10-18T17:40:47.312Z,10.89
2022-10-18T17:45:53.170Z,10.86
2022-10-18T17:50:55.667Z,10.86
2022-10-18T17:56:02.196Z,10.68
2022-10-18T18:01:08.712Z,10.68
2022-10-18T18:06:12.833Z,10.3
2022-10-18T18:11:16.371Z,10.3
2022-10-18T18:16:21.831Z,10.14
2022-10-18T18:21:26.643Z,10.14
2022-10-18T18:26:30.227Z,9.96
2022-10-18T18:31:36.914Z,9.49
2022-10-18T18:36:39.771Z,9.49
2022-10-18T18:41:42.887Z,9.78
2022-10-18T18:46:46.222Z,9.78
2022-10-18T18:51:48.812Z,9.9
2022-10-18T18:56:51.989Z,9.9
2022-10-18T19:01:55.006Z,9.73
2022-10-18T19:06:58.566Z,9.73
2022-10-18T19:12:01.563Z,9.7
2022-10-18T19:17:04.483Z,9.7
2022-10-18T19:22:07.109Z,9.56
2022-10-18T19:27:11.981Z,9.56
2022-10-18T19:32:14.955Z,9.62
2022-10-18T19:37:18.630Z,9.21
2022-10-18T19:42:24.136Z,9.21
2022-10-18T19:47:34.371Z,9.41
2022-10-18T19:52:37.216Z,9.41
2022-10-18T19:57:40.560Z,9.38
2022-10-18T20:02:42.806Z,9.38
2022-10-18T20:07:45.141Z,9.48
2022-10-18T20:12:47.463Z,9.48
2022-10-18T20:22:51.432Z,9.44
2022-10-18T20:27:53.364Z,9.45
2022-10-18T20:32:55.001Z,9.45
2022-10-18T20:37:58.740Z,9.4
2022-10-18T20:43:02.898Z,9.4
2022-10-18T20:48:05.645Z,9.32
2022-10-18T20:53:07.336Z,9.32
2022-10-18T20:58:09.221Z,9.32
2022-10-18T21:08:13.912Z,9.32
2022-10-18T21:13:15.626Z,9.32
2022-10-18T21:18:17.513Z,9.32
2022-10-18T21:23:19.824Z,9.32
2022-10-18T21:28:22.853Z,9.32
2022-10-18T21:33:24.510Z,9.32
2022-10-18T21:38:26.126Z,9.32
